sensor_id;sensor_type;location;lat;lon;timestamp;P1;durP1;ratioP1;P2;durP2;ratioP2
14272;SDS011;7220;49.450;11.052;2024-02-15T00:02:30;2.83;;;2.05;;
14272;SDS011;7220;49.450;11.052;2024-02-15T00:06:30;2.17;;;1.92;;
14272;SDS011;7220;49.450;11.052;2024-02-15T00:10:31;2.13;;;1.85;;
14272;SDS011;7220;49.450;11.052;2024-02-15T00:14:31;2.80;;;2.13;;
14272;SDS011;7220;49.450;11.052;2024-02-15T00:18:32;2.03;;;1.75;;
14272;SDS011;7220;49.450;11.052;2024-02-15T00:22:32;2.35;;;2.15;;
14272;SDS011;7220;49.450;11.052;2024-02-15T00:26:33;2.20;;;2.00;;
14272;SDS011;7220;49.450;11.052;2024-02-15T00:30:33;2.13;;;1.88;;
14272;SDS011;7220;49.450;11.052;2024-02-15T00:34:34;2.63;;;1.60;;
14272;SDS011;7220;49.450;11.052;2024-02-15T00:38:34;1.98;;;1.60;;
14272;SDS011;7220;49.450;11.052;2024-02-15T00:42:35;2.20;;;2.00;;
14272;SDS011;7220;49.450;11.052;2024-02-15T00:46:36;2.40;;;2.20;;
14272;SDS011;7220;49.450;11.052;2024-02-15T00:50:36;1.95;;;1.58;;
14272;SDS011;7220;49.450;11.052;2024-02-15T00:54:37;2.17;;;1.98;;
14272;SDS011;7220;49.450;11.052;2024-02-15T00:58:37;2.05;;;1.88;;
14272;SDS011;7220;49.450;11.052;2024-02-15T01:02:37;1.63;;;1.52;;
14272;SDS011;7220;49.450;11.052;2024-02-15T01:06:38;2.38;;;1.90;;
14272;SDS011;7220;49.450;11.052;2024-02-15T01:10:38;1.70;;;1.60;;
14272;SDS011;7220;49.450;11.052;2024-02-15T01:14:39;2.03;;;1.83;;
14272;SDS011;7220;49.450;11.052;2024-02-15T01:18:39;1.90;;;1.80;;
14272;SDS011;7220;49.450;11.052;2024-02-15T01:22:39;2.50;;;1.95;;
14272;SDS011;7220;49.450;11.052;2024-02-15T01:26:40;2.58;;;2.13;;
14272;SDS011;7220;49.450;11.052;2024-02-15T01:30:40;2.30;;;1.80;;
14272;SDS011;7220;49.450;11.052;2024-02-15T01:34:43;1.70;;;1.58;;
14272;SDS011;7220;49.450;11.052;2024-02-15T01:38:44;1.77;;;1.52;;
14272;SDS011;7220;49.450;11.052;2024-02-15T01:42:45;1.92;;;1.73;;
14272;SDS011;7220;49.450;11.052;2024-02-15T01:46:45;1.60;;;1.50;;
14272;SDS011;7220;49.450;11.052;2024-02-15T01:50:48;1.88;;;1.55;;
14272;SDS011;7220;49.450;11.052;2024-02-15T01:54:52;1.95;;;1.85;;
14272;SDS011;7220;49.450;11.052;2024-02-15T01:58:53;2.03;;;1.92;;
14272;SDS011;7220;49.450;11.052;2024-02-15T02:02:54;1.83;;;1.70;;
14272;SDS011;7220;49.450;11.052;2024-02-15T02:06:59;2.88;;;1.75;;
14272;SDS011;7220;49.450;11.052;2024-02-15T02:11:00;2.45;;;1.77;;
14272;SDS011;7220;49.450;11.052;2024-02-15T02:15:01;2.28;;;1.83;;
14272;SDS011;7220;49.450;11.052;2024-02-15T02:19:02;2.22;;;2.08;;
14272;SDS011;7220;49.450;11.052;2024-02-15T02:23:09;2.80;;;2.22;;
14272;SDS011;7220;49.450;11.052;2024-02-15T02:27:14;3.22;;;2.38;;
14272;SDS011;7220;49.450;11.052;2024-02-15T02:31:15;2.47;;;2.05;;
14272;SDS011;7220;49.450;11.052;2024-02-15T02:35:16;2.45;;;2.20;;
14272;SDS011;7220;49.450;11.052;2024-02-15T02:39:16;2.88;;;2.30;;
14272;SDS011;7220;49.450;11.052;2024-02-15T02:43:17;2.20;;;2.00;;
14272;SDS011;7220;49.450;11.052;2024-02-15T02:47:17;2.35;;;2.15;;
14272;SDS011;7220;49.450;11.052;2024-02-15T02:51:18;3.13;;;1.98;;
14272;SDS011;7220;49.450;11.052;2024-02-15T02:55:18;2.58;;;2.20;;
14272;SDS011;7220;49.450;11.052;2024-02-15T02:59:19;2.85;;;2.42;;
14272;SDS011;7220;49.450;11.052;2024-02-15T03:03:19;2.45;;;1.85;;
14272;SDS011;7220;49.450;11.052;2024-02-15T03:07:20;2.67;;;2.03;;
14272;SDS011;7220;49.450;11.052;2024-02-15T03:11:20;2.67;;;2.08;;
14272;SDS011;7220;49.450;11.052;2024-02-15T03:15:20;3.28;;;2.08;;
14272;SDS011;7220;49.450;11.052;2024-02-15T03:19:22;2.08;;;1.90;;
14272;SDS011;7220;49.450;11.052;2024-02-15T03:23:23;2.30;;;2.10;;
14272;SDS011;7220;49.450;11.052;2024-02-15T03:27:23;2.50;;;2.13;;
14272;SDS011;7220;49.450;11.052;2024-02-15T03:31:23;2.38;;;1.90;;
14272;SDS011;7220;49.450;11.052;2024-02-15T03:35:24;2.30;;;2.10;;
14272;SDS011;7220;49.450;11.052;2024-02-15T03:39:26;2.30;;;2.10;;
14272;SDS011;7220;49.450;11.052;2024-02-15T06:51:30;2.30;;;2.05;;
14272;SDS011;7220;49.450;11.052;2024-02-15T06:55:30;1.73;;;1.63;;
14272;SDS011;7220;49.450;11.052;2024-02-15T06:59:31;2.60;;;1.70;;
14272;SDS011;7220;49.450;11.052;2024-02-15T07:03:32;2.13;;;1.58;;
14272;SDS011;7220;49.450;11.052;2024-02-15T07:07:32;2.03;;;1.73;;
14272;SDS011;7220;49.450;11.052;2024-02-15T07:11:34;1.60;;;1.50;;
14272;SDS011;7220;49.450;11.052;2024-02-15T07:15:35;1.90;;;1.80;;
14272;SDS011;7220;49.450;11.052;2024-02-15T07:19:41;2.22;;;1.90;;
14272;SDS011;7220;49.450;11.052;2024-02-15T07:23:43;4.32;;;2.13;;
14272;SDS011;7220;49.450;11.052;2024-02-15T07:27:43;2.78;;;2.20;;
14272;SDS011;7220;49.450;11.052;2024-02-15T07:31:43;2.28;;;2.10;;
14272;SDS011;7220;49.450;11.052;2024-02-15T07:35:44;2.72;;;1.95;;
14272;SDS011;7220;49.450;11.052;2024-02-15T07:39:44;2.30;;;2.10;;
14272;SDS011;7220;49.450;11.052;2024-02-15T07:43:44;2.72;;;2.10;;
14272;SDS011;7220;49.450;11.052;2024-02-15T07:47:47;1.98;;;1.85;;
14272;SDS011;7220;49.450;11.052;2024-02-15T07:51:48;2.35;;;2.15;;
14272;SDS011;7220;49.450;11.052;2024-02-15T07:55:52;2.55;;;2.17;;
14272;SDS011;7220;49.450;11.052;2024-02-15T07:59:53;3.22;;;1.92;;
14272;SDS011;7220;49.450;11.052;2024-02-15T08:03:53;2.97;;;2.00;;
14272;SDS011;7220;49.450;11.052;2024-02-15T08:07:54;2.45;;;2.08;;
14272;SDS011;7220;49.450;11.052;2024-02-15T08:11:57;2.10;;;1.90;;
14272;SDS011;7220;49.450;11.052;2024-02-15T08:15:59;2.30;;;1.90;;
14272;SDS011;7220;49.450;11.052;2024-02-15T08:19:59;2.40;;;2.20;;
14272;SDS011;7220;49.450;11.052;2024-02-15T08:24:00;2.00;;;1.80;;
14272;SDS011;7220;49.450;11.052;2024-02-15T08:28:05;4.35;;;2.45;;
14272;SDS011;7220;49.450;11.052;2024-02-15T08:32:07;2.60;;;2.38;;
14272;SDS011;7220;49.450;11.052;2024-02-15T08:36:08;2.55;;;2.35;;
14272;SDS011;7220;49.450;11.052;2024-02-15T08:40:10;2.63;;;1.98;;
14272;SDS011;7220;49.450;11.052;2024-02-15T08:44:11;2.45;;;2.05;;
14272;SDS011;7220;49.450;11.052;2024-02-15T08:48:15;3.42;;;2.33;;
14272;SDS011;7220;49.450;11.052;2024-02-15T08:52:16;2.28;;;1.75;;
14272;SDS011;7220;49.450;11.052;2024-02-15T08:56:18;2.33;;;2.08;;
14272;SDS011;7220;49.450;11.052;2024-02-15T09:00:18;3.58;;;2.13;;
14272;SDS011;7220;49.450;11.052;2024-02-15T09:04:19;2.00;;;1.85;;
14272;SDS011;7220;49.450;11.052;2024-02-15T09:08:21;4.53;;;2.50;;
14272;SDS011;7220;49.450;11.052;2024-02-15T09:12:22;2.50;;;1.95;;
14272;SDS011;7220;49.450;11.052;2024-02-15T09:16:22;2.33;;;1.90;;
14272;SDS011;7220;49.450;11.052;2024-02-15T09:20:23;2.97;;;1.75;;
14272;SDS011;7220;49.450;11.052;2024-02-15T09:24:28;3.05;;;2.13;;
14272;SDS011;7220;49.450;11.052;2024-02-15T09:28:28;4.53;;;2.00;;
14272;SDS011;7220;49.450;11.052;2024-02-15T09:32:29;3.13;;;1.88;;
14272;SDS011;7220;49.450;11.052;2024-02-15T09:36:33;3.13;;;1.80;;
14272;SDS011;7220;49.450;11.052;2024-02-15T09:40:35;3.42;;;2.88;;
14272;SDS011;7220;49.450;11.052;2024-02-15T09:44:35;2.58;;;2.10;;
14272;SDS011;7220;49.450;11.052;2024-02-15T09:48:36;2.55;;;1.88;;
14272;SDS011;7220;49.450;11.052;2024-02-15T09:52:43;4.15;;;2.03;;
14272;SDS011;7220;49.450;11.052;2024-02-15T09:56:45;5.93;;;2.50;;
14272;SDS011;7220;49.450;11.052;2024-02-15T10:00:46;2.28;;;2.08;;
14272;SDS011;7220;49.450;11.052;2024-02-15T10:04:46;2.17;;;1.98;;
14272;SDS011;7220;49.450;11.052;2024-02-15T10:08:47;1.90;;;1.80;;
14272;SDS011;7220;49.450;11.052;2024-02-15T10:12:48;3.03;;;1.90;;
14272;SDS011;7220;49.450;11.052;2024-02-15T10:16:49;2.17;;;1.90;;
14272;SDS011;7220;49.450;11.052;2024-02-15T10:20:58;2.80;;;2.10;;
14272;SDS011;7220;49.450;11.052;2024-02-15T10:25:32;5.20;;;2.42;;
14272;SDS011;7220;49.450;11.052;2024-02-15T10:29:29;2.50;;;1.80;;
14272;SDS011;7220;49.450;11.052;2024-02-15T10:33:30;2.90;;;1.90;;
14272;SDS011;7220;49.450;11.052;2024-02-15T10:37:31;1.98;;;1.77;;
14272;SDS011;7220;49.450;11.052;2024-02-15T10:41:32;2.15;;;1.95;;
14272;SDS011;7220;49.450;11.052;2024-02-15T10:45:32;2.95;;;1.95;;
14272;SDS011;7220;49.450;11.052;2024-02-15T10:49:34;1.70;;;1.60;;
14272;SDS011;7220;49.450;11.052;2024-02-15T10:53:39;2.83;;;2.20;;
14272;SDS011;7220;49.450;11.052;2024-02-15T10:57:45;1.73;;;1.63;;
14272;SDS011;7220;49.450;11.052;2024-02-15T11:01:50;2.88;;;1.90;;
14272;SDS011;7220;49.450;11.052;2024-02-15T11:05:59;2.85;;;1.77;;
14272;SDS011;7220;49.450;11.052;2024-02-15T11:10:02;1.70;;;1.60;;
14272;SDS011;7220;49.450;11.052;2024-02-15T11:18:41;2.88;;;1.40;;
14272;SDS011;7220;49.450;11.052;2024-02-15T11:22:46;1.83;;;1.67;;
14272;SDS011;7220;49.450;11.052;2024-02-15T11:26:59;1.83;;;1.73;;
14272;SDS011;7220;49.450;11.052;2024-02-15T11:31:08;2.28;;;1.50;;
14272;SDS011;7220;49.450;11.052;2024-02-15T11:35:09;2.65;;;1.65;;
14272;SDS011;7220;49.450;11.052;2024-02-15T11:47:49;1.48;;;1.38;;
14272;SDS011;7220;49.450;11.052;2024-02-15T11:51:50;4.30;;;1.30;;
14272;SDS011;7220;49.450;11.052;2024-02-15T11:55:51;1.33;;;1.20;;
14272;SDS011;7220;49.450;11.052;2024-02-15T12:00:00;2.13;;;1.45;;
14272;SDS011;7220;49.450;11.052;2024-02-15T12:04:32;1.60;;;1.23;;
14272;SDS011;7220;49.450;11.052;2024-02-15T12:09:11;2.17;;;1.60;;
14272;SDS011;7220;49.450;11.052;2024-02-15T12:13:30;1.77;;;1.27;;
14272;SDS011;7220;49.450;11.052;2024-02-15T12:17:49;2.55;;;1.30;;
14272;SDS011;7220;49.450;11.052;2024-02-15T12:22:07;2.00;;;1.45;;
14272;SDS011;7220;49.450;11.052;2024-02-15T12:26:09;5.90;;;5.32;;
14272;SDS011;7220;49.450;11.052;2024-02-15T12:30:14;1.85;;;1.20;;
14272;SDS011;7220;49.450;11.052;2024-02-15T12:34:16;2.60;;;2.40;;
14272;SDS011;7220;49.450;11.052;2024-02-15T12:38:20;2.50;;;2.30;;
14272;SDS011;7220;49.450;11.052;2024-02-15T12:42:21;1.30;;;1.00;;
14272;SDS011;7220;49.450;11.052;2024-02-15T12:46:22;1.30;;;1.20;;
14272;SDS011;7220;49.450;11.052;2024-02-15T12:50:23;1.30;;;0.63;;
14272;SDS011;7220;49.450;11.052;2024-02-15T12:54:30;0.80;;;0.80;;
14272;SDS011;7220;49.450;11.052;2024-02-15T12:58:31;2.35;;;1.30;;
14272;SDS011;7220;49.450;11.052;2024-02-15T13:02:31;0.90;;;0.90;;
14272;SDS011;7220;49.450;11.052;2024-02-15T13:06:32;1.00;;;1.00;;
14272;SDS011;7220;49.450;11.052;2024-02-15T13:10:35;1.02;;;0.95;;
14272;SDS011;7220;49.450;11.052;2024-02-15T13:14:35;1.58;;;0.90;;
14272;SDS011;7220;49.450;11.052;2024-02-15T13:18:35;0.67;;;0.67;;
14272;SDS011;7220;49.450;11.052;2024-02-15T13:22:37;1.00;;;0.90;;
14272;SDS011;7220;49.450;11.052;2024-02-15T13:26:38;1.30;;;1.20;;
14272;SDS011;7220;49.450;11.052;2024-02-15T13:30:40;2.30;;;1.60;;
14272;SDS011;7220;49.450;11.052;2024-02-15T13:34:43;2.95;;;1.35;;
14272;SDS011;7220;49.450;11.052;2024-02-15T13:38:45;0.93;;;0.85;;
14272;SDS011;7220;49.450;11.052;2024-02-15T13:42:47;2.10;;;1.00;;
14272;SDS011;7220;49.450;11.052;2024-02-15T13:46:53;1.20;;;1.10;;
14272;SDS011;7220;49.450;11.052;2024-02-15T13:50:55;1.33;;;1.20;;
14272;SDS011;7220;49.450;11.052;2024-02-15T13:54:56;1.35;;;0.82;;
14272;SDS011;7220;49.450;11.052;2024-02-15T13:58:56;2.85;;;1.30;;
14272;SDS011;7220;49.450;11.052;2024-02-15T14:02:57;1.25;;;1.00;;
14272;SDS011;7220;49.450;11.052;2024-02-15T14:06:59;1.83;;;1.17;;
14272;SDS011;7220;49.450;11.052;2024-02-15T14:10:59;0.70;;;0.70;;
14272;SDS011;7220;49.450;11.052;2024-02-15T14:15:00;1.05;;;1.00;;
14272;SDS011;7220;49.450;11.052;2024-02-15T14:19:01;7.03;;;2.55;;
14272;SDS011;7220;49.450;11.052;2024-02-15T14:23:03;1.73;;;1.10;;
14272;SDS011;7220;49.450;11.052;2024-02-15T14:27:05;1.02;;;0.95;;
14272;SDS011;7220;49.450;11.052;2024-02-15T14:31:06;1.40;;;1.30;;
14272;SDS011;7220;49.450;11.052;2024-02-15T14:35:25;1.70;;;1.10;;
14272;SDS011;7220;49.450;11.052;2024-02-15T14:39:25;0.85;;;0.85;;
14272;SDS011;7220;49.450;11.052;2024-02-15T14:43:26;1.13;;;1.05;;
14272;SDS011;7220;49.450;11.052;2024-02-15T14:47:26;1.85;;;1.00;;
14272;SDS011;7220;49.450;11.052;2024-02-15T14:51:26;1.75;;;1.23;;
14272;SDS011;7220;49.450;11.052;2024-02-15T14:55:27;1.13;;;1.00;;
14272;SDS011;7220;49.450;11.052;2024-02-15T14:59:29;0.82;;;0.82;;
14272;SDS011;7220;49.450;11.052;2024-02-15T15:03:32;1.60;;;1.00;;
14272;SDS011;7220;49.450;11.052;2024-02-15T15:07:33;0.68;;;0.68;;
14272;SDS011;7220;49.450;11.052;2024-02-15T15:11:52;1.58;;;1.10;;
14272;SDS011;7220;49.450;11.052;2024-02-15T15:16:11;0.98;;;0.80;;
14272;SDS011;7220;49.450;11.052;2024-02-15T15:20:14;0.98;;;0.90;;
14272;SDS011;7220;49.450;11.052;2024-02-15T15:24:17;0.95;;;0.95;;
14272;SDS011;7220;49.450;11.052;2024-02-15T15:28:18;1.13;;;0.98;;
14272;SDS011;7220;49.450;11.052;2024-02-15T15:32:19;1.60;;;1.00;;
14272;SDS011;7220;49.450;11.052;2024-02-15T15:36:19;1.23;;;1.10;;
14272;SDS011;7220;49.450;11.052;2024-02-15T15:40:21;0.82;;;0.82;;
14272;SDS011;7220;49.450;11.052;2024-02-15T15:44:22;0.77;;;0.77;;
14272;SDS011;7220;49.450;11.052;2024-02-15T15:48:23;0.90;;;0.90;;
14272;SDS011;7220;49.450;11.052;2024-02-15T15:52:24;1.00;;;1.00;;
14272;SDS011;7220;49.450;11.052;2024-02-15T15:56:24;2.00;;;1.10;;
14272;SDS011;7220;49.450;11.052;2024-02-15T16:00:25;0.80;;;0.80;;
14272;SDS011;7220;49.450;11.052;2024-02-15T16:04:25;1.05;;;0.90;;
14272;SDS011;7220;49.450;11.052;2024-02-15T16:08:26;0.90;;;0.90;;
14272;SDS011;7220;49.450;11.052;2024-02-15T16:12:26;0.70;;;0.70;;
14272;SDS011;7220;49.450;11.052;2024-02-15T16:16:30;0.80;;;0.80;;
14272;SDS011;7220;49.450;11.052;2024-02-15T16:20:30;1.13;;;1.08;;
14272;SDS011;7220;49.450;11.052;2024-02-15T16:24:31;1.23;;;0.90;;
14272;SDS011;7220;49.450;11.052;2024-02-15T16:28:34;1.27;;;1.10;;
14272;SDS011;7220;49.450;11.052;2024-02-15T16:32:35;1.05;;;1.05;;
14272;SDS011;7220;49.450;11.052;2024-02-15T16:36:35;1.95;;;1.40;;
14272;SDS011;7220;49.450;11.052;2024-02-15T16:40:36;1.48;;;1.10;;
14272;SDS011;7220;49.450;11.052;2024-02-15T16:44:36;1.60;;;1.25;;
14272;SDS011;7220;49.450;11.052;2024-02-15T16:48:37;3.15;;;1.30;;
14272;SDS011;7220;49.450;11.052;2024-02-15T16:52:38;1.92;;;1.70;;
14272;SDS011;7220;49.450;11.052;2024-02-15T16:56:38;1.40;;;1.30;;
14272;SDS011;7220;49.450;11.052;2024-02-15T17:00:39;2.83;;;1.90;;
14272;SDS011;7220;49.450;11.052;2024-02-15T17:04:39;2.63;;;1.65;;
14272;SDS011;7220;49.450;11.052;2024-02-15T17:08:40;3.20;;;1.60;;
14272;SDS011;7220;49.450;11.052;2024-02-15T17:12:41;1.40;;;1.30;;
14272;SDS011;7220;49.450;11.052;2024-02-15T17:16:41;2.45;;;1.50;;
14272;SDS011;7220;49.450;11.052;2024-02-15T17:20:45;1.40;;;1.30;;
14272;SDS011;7220;49.450;11.052;2024-02-15T17:24:45;2.10;;;1.30;;
14272;SDS011;7220;49.450;11.052;2024-02-15T17:28:45;2.30;;;1.40;;
14272;SDS011;7220;49.450;11.052;2024-02-15T17:32:46;1.50;;;1.40;;
14272;SDS011;7220;49.450;11.052;2024-02-15T17:36:46;1.50;;;1.40;;
14272;SDS011;7220;49.450;11.052;2024-02-15T17:40:47;1.85;;;1.60;;
14272;SDS011;7220;49.450;11.052;2024-02-15T17:44:49;1.73;;;1.35;;
14272;SDS011;7220;49.450;11.052;2024-02-15T17:48:49;1.83;;;1.52;;
14272;SDS011;7220;49.450;11.052;2024-02-15T17:52:50;2.28;;;1.50;;
14272;SDS011;7220;49.450;11.052;2024-02-15T17:56:50;1.70;;;1.30;;
14272;SDS011;7220;49.450;11.052;2024-02-15T18:00:53;2.40;;;1.65;;
14272;SDS011;7220;49.450;11.052;2024-02-15T18:04:53;2.53;;;1.67;;
14272;SDS011;7220;49.450;11.052;2024-02-15T18:08:53;2.25;;;1.40;;
14272;SDS011;7220;49.450;11.052;2024-02-15T18:12:54;2.22;;;1.35;;
14272;SDS011;7220;49.450;11.052;2024-02-15T18:16:54;1.52;;;1.30;;
14272;SDS011;7220;49.450;11.052;2024-02-15T18:20:57;1.88;;;1.60;;
14272;SDS011;7220;49.450;11.052;2024-02-15T18:24:59;2.35;;;1.30;;
14272;SDS011;7220;49.450;11.052;2024-02-15T18:28:59;2.25;;;1.50;;
14272;SDS011;7220;49.450;11.052;2024-02-15T18:32:59;1.38;;;1.23;;
14272;SDS011;7220;49.450;11.052;2024-02-15T18:37:03;2.53;;;1.52;;
14272;SDS011;7220;49.450;11.052;2024-02-15T18:41:04;1.90;;;1.60;;
14272;SDS011;7220;49.450;11.052;2024-02-15T18:45:06;1.63;;;1.50;;
14272;SDS011;7220;49.450;11.052;2024-02-15T18:49:06;3.50;;;1.90;;
14272;SDS011;7220;49.450;11.052;2024-02-15T18:53:07;2.13;;;1.90;;
14272;SDS011;7220;49.450;11.052;2024-02-15T18:57:09;1.50;;;1.40;;
14272;SDS011;7220;49.450;11.052;2024-02-15T19:01:11;2.70;;;1.70;;
14272;SDS011;7220;49.450;11.052;2024-02-15T19:05:12;2.50;;;2.08;;
14272;SDS011;7220;49.450;11.052;2024-02-15T19:09:17;2.95;;;2.22;;
14272;SDS011;7220;49.450;11.052;2024-02-15T19:13:18;3.97;;;2.03;;
14272;SDS011;7220;49.450;11.052;2024-02-15T19:17:18;1.90;;;1.75;;
14272;SDS011;7220;49.450;11.052;2024-02-15T19:21:19;2.95;;;2.00;;
14272;SDS011;7220;49.450;11.052;2024-02-15T19:25:19;2.00;;;1.90;;
14272;SDS011;7220;49.450;11.052;2024-02-15T19:29:20;2.28;;;1.83;;
14272;SDS011;7220;49.450;11.052;2024-02-15T19:33:21;3.58;;;1.92;;
14272;SDS011;7220;49.450;11.052;2024-02-15T19:37:23;2.70;;;2.25;;
14272;SDS011;7220;49.450;11.052;2024-02-15T19:41:24;5.40;;;3.13;;
14272;SDS011;7220;49.450;11.052;2024-02-15T19:45:25;4.85;;;3.08;;
14272;SDS011;7220;49.450;11.052;2024-02-15T19:49:25;5.55;;;3.88;;
14272;SDS011;7220;49.450;11.052;2024-02-15T19:53:27;5.70;;;3.75;;
14272;SDS011;7220;49.450;11.052;2024-02-15T19:57:27;6.60;;;4.57;;
14272;SDS011;7220;49.450;11.052;2024-02-15T20:01:28;7.68;;;4.22;;
14272;SDS011;7220;49.450;11.052;2024-02-15T20:05:28;5.90;;;3.88;;
14272;SDS011;7220;49.450;11.052;2024-02-15T20:09:28;5.28;;;2.95;;
14272;SDS011;7220;49.450;11.052;2024-02-15T20:13:30;3.88;;;2.42;;
14272;SDS011;7220;49.450;11.052;2024-02-15T20:17:31;4.97;;;3.13;;
14272;SDS011;7220;49.450;11.052;2024-02-15T20:21:35;4.75;;;3.20;;
14272;SDS011;7220;49.450;11.052;2024-02-15T20:25:35;4.57;;;2.60;;
14272;SDS011;7220;49.450;11.052;2024-02-15T20:29:36;4.10;;;2.65;;
14272;SDS011;7220;49.450;11.052;2024-02-15T20:33:39;2.72;;;2.53;;
14272;SDS011;7220;49.450;11.052;2024-02-15T20:37:41;3.78;;;2.80;;
14272;SDS011;7220;49.450;11.052;2024-02-15T20:41:42;3.30;;;2.67;;
14272;SDS011;7220;49.450;11.052;2024-02-15T20:45:43;4.78;;;2.95;;
14272;SDS011;7220;49.450;11.052;2024-02-15T20:49:44;3.33;;;2.85;;
14272;SDS011;7220;49.450;11.052;2024-02-15T20:53:44;4.15;;;3.00;;
14272;SDS011;7220;49.450;11.052;2024-02-15T20:57:50;4.68;;;3.40;;
14272;SDS011;7220;49.450;11.052;2024-02-15T21:01:50;4.97;;;3.53;;
14272;SDS011;7220;49.450;11.052;2024-02-15T21:05:52;6.53;;;3.20;;
14272;SDS011;7220;49.450;11.052;2024-02-15T21:09:53;4.90;;;3.13;;
14272;SDS011;7220;49.450;11.052;2024-02-15T21:13:53;5.10;;;3.63;;
14272;SDS011;7220;49.450;11.052;2024-02-15T21:17:54;5.05;;;2.95;;
14272;SDS011;7220;49.450;11.052;2024-02-15T21:21:56;3.72;;;3.08;;
14272;SDS011;7220;49.450;11.052;2024-02-15T21:25:56;2.92;;;2.50;;
14272;SDS011;7220;49.450;11.052;2024-02-15T21:29:56;3.22;;;2.50;;
14272;SDS011;7220;49.450;11.052;2024-02-15T21:33:59;3.20;;;2.35;;
14272;SDS011;7220;49.450;11.052;2024-02-15T21:37:59;3.33;;;2.60;;
14272;SDS011;7220;49.450;11.052;2024-02-15T21:42:00;2.85;;;2.38;;
14272;SDS011;7220;49.450;11.052;2024-02-15T21:46:01;4.00;;;2.90;;
14272;SDS011;7220;49.450;11.052;2024-02-15T21:50:03;3.55;;;2.67;;
14272;SDS011;7220;49.450;11.052;2024-02-15T21:54:04;2.97;;;2.42;;
14272;SDS011;7220;49.450;11.052;2024-02-15T21:58:04;2.60;;;2.40;;
14272;SDS011;7220;49.450;11.052;2024-02-15T22:02:05;3.03;;;2.58;;
14272;SDS011;7220;49.450;11.052;2024-02-15T22:06:08;6.20;;;2.72;;
14272;SDS011;7220;49.450;11.052;2024-02-15T22:10:10;3.40;;;2.33;;
14272;SDS011;7220;49.450;11.052;2024-02-15T22:14:11;3.03;;;2.45;;
14272;SDS011;7220;49.450;11.052;2024-02-15T22:18:11;3.58;;;2.58;;
14272;SDS011;7220;49.450;11.052;2024-02-15T22:22:12;2.45;;;2.00;;
14272;SDS011;7220;49.450;11.052;2024-02-15T22:26:13;3.33;;;2.35;;
14272;SDS011;7220;49.450;11.052;2024-02-15T22:30:15;3.15;;;2.58;;
14272;SDS011;7220;49.450;11.052;2024-02-15T22:34:18;3.30;;;2.50;;
14272;SDS011;7220;49.450;11.052;2024-02-15T22:38:18;3.63;;;2.97;;
14272;SDS011;7220;49.450;11.052;2024-02-15T22:42:19;2.95;;;2.40;;
14272;SDS011;7220;49.450;11.052;2024-02-15T22:46:19;3.40;;;2.55;;
14272;SDS011;7220;49.450;11.052;2024-02-15T22:50:20;3.22;;;2.50;;
14272;SDS011;7220;49.450;11.052;2024-02-15T22:54:20;2.35;;;2.03;;
14272;SDS011;7220;49.450;11.052;2024-02-15T22:58:21;2.25;;;2.05;;
14272;SDS011;7220;49.450;11.052;2024-02-15T23:02:23;2.97;;;2.40;;
14272;SDS011;7220;49.450;11.052;2024-02-15T23:06:24;3.85;;;2.30;;
14272;SDS011;7220;49.450;11.052;2024-02-15T23:10:27;4.28;;;2.38;;
14272;SDS011;7220;49.450;11.052;2024-02-15T23:14:29;2.85;;;2.60;;
14272;SDS011;7220;49.450;11.052;2024-02-15T23:18:30;2.90;;;2.30;;
14272;SDS011;7220;49.450;11.052;2024-02-15T23:22:30;2.20;;;2.00;;
14272;SDS011;7220;49.450;11.052;2024-02-15T23:26:31;2.95;;;2.33;;
14272;SDS011;7220;49.450;11.052;2024-02-15T23:30:31;2.85;;;2.28;;
14272;SDS011;7220;49.450;11.052;2024-02-15T23:34:32;3.10;;;2.15;;
14272;SDS011;7220;49.450;11.052;2024-02-15T23:38:32;1.95;;;1.85;;
14272;SDS011;7220;49.450;11.052;2024-02-15T23:42:52;2.55;;;1.83;;
14272;SDS011;7220;49.450;11.052;2024-02-15T23:46:53;2.35;;;2.15;;
14272;SDS011;7220;49.450;11.052;2024-02-15T23:50:55;2.33;;;1.92;;
14272;SDS011;7220;49.450;11.052;2024-02-15T23:54:55;2.47;;;2.13;;
14272;SDS011;7220;49.450;11.052;2024-02-15T23:58:56;3.10;;;2.17;;
